sensor_id;sensor_type;location;lat;lon;timestamp;temperature;humidity
38131;DHT22;23947;51.894;4.622;2023-04-06T00:00:50;5.70;1.40
38131;DHT22;23947;51.894;4.622;2023-04-06T00:03:16;5.80;1.40
38131;DHT22;23947;51.894;4.622;2023-04-06T00:05:42;5.80;1.40
38131;DHT22;23947;51.894;4.622;2023-04-06T00:08:08;5.80;1.40
38131;DHT22;23947;51.894;4.622;2023-04-06T00:10:33;5.80;1.40
38131;DHT22;23947;51.894;4.622;2023-04-06T00:13:00;5.80;1.40
38131;DHT22;23947;51.894;4.622;2023-04-06T00:15:26;5.80;1.40
38131;DHT22;23947;51.894;4.622;2023-04-06T00:17:52;5.80;1.40
38131;DHT22;23947;51.894;4.622;2023-04-06T00:20:18;5.80;1.40
38131;DHT22;23947;51.894;4.622;2023-04-06T00:22:44;5.90;1.40
38131;DHT22;23947;51.894;4.622;2023-04-06T00:25:10;5.90;1.40
38131;DHT22;23947;51.894;4.622;2023-04-06T00:27:37;5.80;1.40
38131;DHT22;23947;51.894;4.622;2023-04-06T00:30:04;5.90;1.40
38131;DHT22;23947;51.894;4.622;2023-04-06T00:32:30;6.00;1.40
38131;DHT22;23947;51.894;4.622;2023-04-06T00:34:56;6.00;1.40
38131;DHT22;23947;51.894;4.622;2023-04-06T00:37:21;6.10;1.40
38131;DHT22;23947;51.894;4.622;2023-04-06T00:39:47;6.10;1.40
38131;DHT22;23947;51.894;4.622;2023-04-06T00:42:13;6.20;1.40
38131;DHT22;23947;51.894;4.622;2023-04-06T00:44:42;6.30;1.40
38131;DHT22;23947;51.894;4.622;2023-04-06T00:47:08;6.30;1.40
38131;DHT22;23947;51.894;4.622;2023-04-06T00:49:34;6.40;1.40
38131;DHT22;23947;51.894;4.622;2023-04-06T00:52:00;6.40;1.40
38131;DHT22;23947;51.894;4.622;2023-04-06T00:54:27;6.40;1.40
38131;DHT22;23947;51.894;4.622;2023-04-06T00:56:53;6.30;1.40
38131;DHT22;23947;51.894;4.622;2023-04-06T00:59:18;6.30;1.40
38131;DHT22;23947;51.894;4.622;2023-04-06T01:01:44;6.30;1.40
38131;DHT22;23947;51.894;4.622;2023-04-06T01:04:10;6.30;1.40
38131;DHT22;23947;51.894;4.622;2023-04-06T01:06:36;6.30;1.40
38131;DHT22;23947;51.894;4.622;2023-04-06T01:09:02;6.20;1.40
38131;DHT22;23947;51.894;4.622;2023-04-06T01:11:30;6.30;1.40
38131;DHT22;23947;51.894;4.622;2023-04-06T01:13:56;6.30;1.40
38131;DHT22;23947;51.894;4.622;2023-04-06T01:16:22;6.30;1.40
38131;DHT22;23947;51.894;4.622;2023-04-06T01:18:48;6.30;1.40
38131;DHT22;23947;51.894;4.622;2023-04-06T01:21:13;6.30;1.40
38131;DHT22;23947;51.894;4.622;2023-04-06T01:23:45;6.30;1.40
38131;DHT22;23947;51.894;4.622;2023-04-06T01:26:12;6.30;1.40
38131;DHT22;23947;51.894;4.622;2023-04-06T01:28:38;6.30;1.40
38131;DHT22;23947;51.894;4.622;2023-04-06T01:31:08;6.30;1.40
38131;DHT22;23947;51.894;4.622;2023-04-06T01:33:33;6.30;1.40
38131;DHT22;23947;51.894;4.622;2023-04-06T01:35:59;6.40;1.40
38131;DHT22;23947;51.894;4.622;2023-04-06T01:38:26;6.30;1.40
38131;DHT22;23947;51.894;4.622;2023-04-06T01:40:52;6.40;1.40
38131;DHT22;23947;51.894;4.622;2023-04-06T01:43:18;6.50;1.40
38131;DHT22;23947;51.894;4.622;2023-04-06T01:45:44;6.50;1.40
38131;DHT22;23947;51.894;4.622;2023-04-06T01:48:09;6.50;1.40
38131;DHT22;23947;51.894;4.622;2023-04-06T01:50:35;6.50;1.40
38131;DHT22;23947;51.894;4.622;2023-04-06T01:53:01;6.50;1.40
38131;DHT22;23947;51.894;4.622;2023-04-06T01:55:27;6.50;1.40
38131;DHT22;23947;51.894;4.622;2023-04-06T01:57:52;6.50;1.40
38131;DHT22;23947;51.894;4.622;2023-04-06T02:00:18;6.60;1.40
38131;DHT22;23947;51.894;4.622;2023-04-06T02:02:44;6.60;1.40
38131;DHT22;23947;51.894;4.622;2023-04-06T02:05:10;6.60;1.40
38131;DHT22;23947;51.894;4.622;2023-04-06T02:07:36;6.50;1.40
38131;DHT22;23947;51.894;4.622;2023-04-06T02:10:02;6.60;1.40
38131;DHT22;23947;51.894;4.622;2023-04-06T02:12:28;6.60;1.40
38131;DHT22;23947;51.894;4.622;2023-04-06T02:14:54;6.60;1.40
38131;DHT22;23947;51.894;4.622;2023-04-06T02:17:20;6.60;1.40
38131;DHT22;23947;51.894;4.622;2023-04-06T02:19:45;6.60;1.40
38131;DHT22;23947;51.894;4.622;2023-04-06T02:22:11;6.60;1.40
38131;DHT22;23947;51.894;4.622;2023-04-06T02:24:37;6.60;1.40
38131;DHT22;23947;51.894;4.622;2023-04-06T02:27:02;6.70;1.40
38131;DHT22;23947;51.894;4.622;2023-04-06T02:29:28;6.70;1.40
38131;DHT22;23947;51.894;4.622;2023-04-06T02:31:54;6.70;1.40
38131;DHT22;23947;51.894;4.622;2023-04-06T02:34:20;6.70;1.40
38131;DHT22;23947;51.894;4.622;2023-04-06T02:36:46;6.70;1.40
38131;DHT22;23947;51.894;4.622;2023-04-06T02:39:12;6.70;1.40
38131;DHT22;23947;51.894;4.622;2023-04-06T02:41:38;6.70;1.40
38131;DHT22;23947;51.894;4.622;2023-04-06T02:44:06;6.70;1.40
38131;DHT22;23947;51.894;4.622;2023-04-06T02:46:32;6.70;1.40
38131;DHT22;23947;51.894;4.622;2023-04-06T02:48:57;6.70;1.40
38131;DHT22;23947;51.894;4.622;2023-04-06T02:51:26;6.70;1.40
38131;DHT22;23947;51.894;4.622;2023-04-06T02:53:51;6.70;1.40
38131;DHT22;23947;51.894;4.622;2023-04-06T02:56:17;6.70;1.40
38131;DHT22;23947;51.894;4.622;2023-04-06T02:58:43;6.70;1.40
38131;DHT22;23947;51.894;4.622;2023-04-06T03:01:08;6.70;1.40
38131;DHT22;23947;51.894;4.622;2023-04-06T03:03:34;6.70;1.40
38131;DHT22;23947;51.894;4.622;2023-04-06T03:06:00;6.70;1.40
38131;DHT22;23947;51.894;4.622;2023-04-06T03:08:26;6.80;1.40
38131;DHT22;23947;51.894;4.622;2023-04-06T03:10:52;6.80;1.40
38131;DHT22;23947;51.894;4.622;2023-04-06T03:13:17;6.80;1.40
38131;DHT22;23947;51.894;4.622;2023-04-06T03:15:43;6.80;1.40
38131;DHT22;23947;51.894;4.622;2023-04-06T03:18:09;6.80;1.40
38131;DHT22;23947;51.894;4.622;2023-04-06T03:20:35;6.80;1.40
38131;DHT22;23947;51.894;4.622;2023-04-06T03:23:01;6.80;1.40
38131;DHT22;23947;51.894;4.622;2023-04-06T03:25:27;6.80;1.40
38131;DHT22;23947;51.894;4.622;2023-04-06T03:27:53;6.80;1.40
38131;DHT22;23947;51.894;4.622;2023-04-06T03:30:19;6.80;1.40
38131;DHT22;23947;51.894;4.622;2023-04-06T03:32:45;6.70;1.40
38131;DHT22;23947;51.894;4.622;2023-04-06T03:35:11;6.70;1.40
38131;DHT22;23947;51.894;4.622;2023-04-06T03:37:36;6.70;1.40
38131;DHT22;23947;51.894;4.622;2023-04-06T03:40:03;6.70;1.40
38131;DHT22;23947;51.894;4.622;2023-04-06T03:42:29;6.70;1.40
38131;DHT22;23947;51.894;4.622;2023-04-06T03:44:56;6.70;1.40
38131;DHT22;23947;51.894;4.622;2023-04-06T03:47:22;6.70;1.40
38131;DHT22;23947;51.894;4.622;2023-04-06T03:49:47;6.70;1.40
38131;DHT22;23947;51.894;4.622;2023-04-06T03:52:13;6.70;1.40
38131;DHT22;23947;51.894;4.622;2023-04-06T03:54:39;6.80;1.40
38131;DHT22;23947;51.894;4.622;2023-04-06T03:57:05;6.70;1.40
38131;DHT22;23947;51.894;4.622;2023-04-06T03:59:30;6.80;1.40
38131;DHT22;23947;51.894;4.622;2023-04-06T04:01:56;6.80;1.40
38131;DHT22;23947;51.894;4.622;2023-04-06T04:04:21;6.80;1.40
38131;DHT22;23947;51.894;4.622;2023-04-06T04:06:47;6.80;1.40
38131;DHT22;23947;51.894;4.622;2023-04-06T04:09:13;6.80;1.40
38131;DHT22;23947;51.894;4.622;2023-04-06T04:11:38;6.80;1.40
38131;DHT22;23947;51.894;4.622;2023-04-06T04:14:04;6.80;1.40
38131;DHT22;23947;51.894;4.622;2023-04-06T04:16:30;6.80;1.40
38131;DHT22;23947;51.894;4.622;2023-04-06T04:18:56;6.70;1.40
38131;DHT22;23947;51.894;4.622;2023-04-06T04:21:23;6.80;1.40
38131;DHT22;23947;51.894;4.622;2023-04-06T04:23:49;6.70;1.40
38131;DHT22;23947;51.894;4.622;2023-04-06T04:26:15;6.80;1.40
38131;DHT22;23947;51.894;4.622;2023-04-06T04:28:40;6.80;1.40
38131;DHT22;23947;51.894;4.622;2023-04-06T04:31:06;6.80;1.40
38131;DHT22;23947;51.894;4.622;2023-04-06T04:33:32;6.80;1.40
38131;DHT22;23947;51.894;4.622;2023-04-06T04:35:57;6.80;1.40
38131;DHT22;23947;51.894;4.622;2023-04-06T04:38:23;6.80;1.40
38131;DHT22;23947;51.894;4.622;2023-04-06T04:40:48;6.80;1.40
38131;DHT22;23947;51.894;4.622;2023-04-06T04:43:14;6.80;1.40
38131;DHT22;23947;51.894;4.622;2023-04-06T04:45:40;6.80;1.40
38131;DHT22;23947;51.894;4.622;2023-04-06T04:48:06;6.80;1.40
38131;DHT22;23947;51.894;4.622;2023-04-06T04:50:33;6.80;1.40
38131;DHT22;23947;51.894;4.622;2023-04-06T04:52:58;6.80;1.40
38131;DHT22;23947;51.894;4.622;2023-04-06T04:55:24;6.80;1.40
38131;DHT22;23947;51.894;4.622;2023-04-06T04:57:50;6.80;1.40
38131;DHT22;23947;51.894;4.622;2023-04-06T05:00:16;6.80;1.40
38131;DHT22;23947;51.894;4.622;2023-04-06T05:02:41;6.80;1.40
38131;DHT22;23947;51.894;4.622;2023-04-06T05:05:07;6.80;1.40
38131;DHT22;23947;51.894;4.622;2023-04-06T05:07:33;6.80;1.40
38131;DHT22;23947;51.894;4.622;2023-04-06T05:09:59;6.80;1.40
38131;DHT22;23947;51.894;4.622;2023-04-06T05:12:25;6.80;1.40
38131;DHT22;23947;51.894;4.622;2023-04-06T05:14:53;6.80;1.40
38131;DHT22;23947;51.894;4.622;2023-04-06T05:17:19;6.80;1.40
38131;DHT22;23947;51.894;4.622;2023-04-06T05:19:45;6.90;1.40
38131;DHT22;23947;51.894;4.622;2023-04-06T05:22:11;6.80;1.40
38131;DHT22;23947;51.894;4.622;2023-04-06T05:24:36;6.90;1.40
38131;DHT22;23947;51.894;4.622;2023-04-06T05:27:02;6.90;1.40
38131;DHT22;23947;51.894;4.622;2023-04-06T05:29:29;6.80;1.40
38131;DHT22;23947;51.894;4.622;2023-04-06T05:31:54;6.90;1.40
38131;DHT22;23947;51.894;4.622;2023-04-06T05:34:20;6.90;1.40
38131;DHT22;23947;51.894;4.622;2023-04-06T05:36:46;7.00;1.40
38131;DHT22;23947;51.894;4.622;2023-04-06T05:39:12;7.00;1.40
38131;DHT22;23947;51.894;4.622;2023-04-06T05:41:38;6.90;1.40
38131;DHT22;23947;51.894;4.622;2023-04-06T05:44:04;6.90;1.40
38131;DHT22;23947;51.894;4.622;2023-04-06T05:46:29;6.90;1.40
38131;DHT22;23947;51.894;4.622;2023-04-06T05:48:55;6.90;1.40
38131;DHT22;23947;51.894;4.622;2023-04-06T05:51:21;6.90;1.40
38131;DHT22;23947;51.894;4.622;2023-04-06T05:53:47;6.90;1.40
38131;DHT22;23947;51.894;4.622;2023-04-06T05:56:12;6.90;1.40
38131;DHT22;23947;51.894;4.622;2023-04-06T05:58:38;6.90;1.40
38131;DHT22;23947;51.894;4.622;2023-04-06T06:01:04;6.90;1.40
38131;DHT22;23947;51.894;4.622;2023-04-06T06:03:30;6.90;1.40
38131;DHT22;23947;51.894;4.622;2023-04-06T06:06:03;6.90;1.40
38131;DHT22;23947;51.894;4.622;2023-04-06T06:08:29;6.90;1.40
38131;DHT22;23947;51.894;4.622;2023-04-06T06:10:55;6.90;1.40
38131;DHT22;23947;51.894;4.622;2023-04-06T06:13:22;6.90;1.40
38131;DHT22;23947;51.894;4.622;2023-04-06T06:15:48;7.00;1.40
38131;DHT22;23947;51.894;4.622;2023-04-06T06:18:14;7.00;1.40
38131;DHT22;23947;51.894;4.622;2023-04-06T06:20:39;7.10;1.40
38131;DHT22;23947;51.894;4.622;2023-04-06T06:23:05;7.10;1.40
38131;DHT22;23947;51.894;4.622;2023-04-06T06:25:31;7.10;1.40
38131;DHT22;23947;51.894;4.622;2023-04-06T06:27:57;7.10;1.40
38131;DHT22;23947;51.894;4.622;2023-04-06T06:30:23;7.10;1.40
38131;DHT22;23947;51.894;4.622;2023-04-06T06:32:50;7.10;1.40
38131;DHT22;23947;51.894;4.622;2023-04-06T06:35:16;7.10;1.40
38131;DHT22;23947;51.894;4.622;2023-04-06T06:37:41;7.20;1.40
38131;DHT22;23947;51.894;4.622;2023-04-06T06:40:09;7.20;1.40
38131;DHT22;23947;51.894;4.622;2023-04-06T06:42:34;7.30;1.40
38131;DHT22;23947;51.894;4.622;2023-04-06T06:45:00;7.30;1.40
38131;DHT22;23947;51.894;4.622;2023-04-06T06:47:26;7.30;1.40
38131;DHT22;23947;51.894;4.622;2023-04-06T06:49:51;7.40;1.40
38131;DHT22;23947;51.894;4.622;2023-04-06T06:52:17;7.50;1.40
38131;DHT22;23947;51.894;4.622;2023-04-06T06:54:43;7.50;1.40
38131;DHT22;23947;51.894;4.622;2023-04-06T06:57:09;7.60;1.40
38131;DHT22;23947;51.894;4.622;2023-04-06T06:59:34;7.70;1.40
38131;DHT22;23947;51.894;4.622;2023-04-06T07:02:00;7.70;1.40
38131;DHT22;23947;51.894;4.622;2023-04-06T07:04:26;7.70;1.40
38131;DHT22;23947;51.894;4.622;2023-04-06T07:06:51;7.60;1.40
38131;DHT22;23947;51.894;4.622;2023-04-06T07:09:18;7.70;1.40
38131;DHT22;23947;51.894;4.622;2023-04-06T07:11:44;7.80;1.40
38131;DHT22;23947;51.894;4.622;2023-04-06T07:14:09;7.80;1.40
38131;DHT22;23947;51.894;4.622;2023-04-06T07:16:37;7.80;1.40
38131;DHT22;23947;51.894;4.622;2023-04-06T07:19:03;7.90;1.40
38131;DHT22;23947;51.894;4.622;2023-04-06T07:21:28;7.90;1.40
38131;DHT22;23947;51.894;4.622;2023-04-06T07:23:54;7.90;1.40
38131;DHT22;23947;51.894;4.622;2023-04-06T07:26:20;8.00;1.40
38131;DHT22;23947;51.894;4.622;2023-04-06T07:28:45;8.00;1.40
38131;DHT22;23947;51.894;4.622;2023-04-06T07:31:11;8.00;1.40
38131;DHT22;23947;51.894;4.622;2023-04-06T07:33:37;8.10;1.40
38131;DHT22;23947;51.894;4.622;2023-04-06T07:36:03;8.10;1.40
38131;DHT22;23947;51.894;4.622;2023-04-06T07:38:28;8.10;1.40
38131;DHT22;23947;51.894;4.622;2023-04-06T07:40:54;8.20;1.40
38131;DHT22;23947;51.894;4.622;2023-04-06T07:43:20;8.20;1.40
38131;DHT22;23947;51.894;4.622;2023-04-06T07:45:45;8.20;1.40
38131;DHT22;23947;51.894;4.622;2023-04-06T07:48:11;8.20;1.40
38131;DHT22;23947;51.894;4.622;2023-04-06T07:50:37;8.20;1.40
38131;DHT22;23947;51.894;4.622;2023-04-06T07:53:02;8.30;1.40
38131;DHT22;23947;51.894;4.622;2023-04-06T07:55:28;8.30;1.40
38131;DHT22;23947;51.894;4.622;2023-04-06T07:57:54;8.40;1.40
38131;DHT22;23947;51.894;4.622;2023-04-06T08:00:20;8.40;1.40
38131;DHT22;23947;51.894;4.622;2023-04-06T08:02:45;8.40;1.40
38131;DHT22;23947;51.894;4.622;2023-04-06T08:05:11;8.50;1.40
38131;DHT22;23947;51.894;4.622;2023-04-06T08:07:37;8.50;1.40
38131;DHT22;23947;51.894;4.622;2023-04-06T08:10:03;8.50;1.40
38131;DHT22;23947;51.894;4.622;2023-04-06T08:12:29;8.50;1.40
38131;DHT22;23947;51.894;4.622;2023-04-06T08:14:55;8.50;1.40
38131;DHT22;23947;51.894;4.622;2023-04-06T08:17:22;8.50;1.40
38131;DHT22;23947;51.894;4.622;2023-04-06T08:19:47;8.60;1.40
38131;DHT22;23947;51.894;4.622;2023-04-06T08:22:13;8.50;1.40
38131;DHT22;23947;51.894;4.622;2023-04-06T08:24:39;8.50;1.40
38131;DHT22;23947;51.894;4.622;2023-04-06T08:27:04;8.50;1.40
38131;DHT22;23947;51.894;4.622;2023-04-06T08:29:30;8.50;1.40
38131;DHT22;23947;51.894;4.622;2023-04-06T08:31:56;8.50;1.40
38131;DHT22;23947;51.894;4.622;2023-04-06T08:34:22;8.60;1.40
38131;DHT22;23947;51.894;4.622;2023-04-06T08:36:48;8.50;1.40
38131;DHT22;23947;51.894;4.622;2023-04-06T08:39:14;8.50;1.40
38131;DHT22;23947;51.894;4.622;2023-04-06T08:41:42;8.50;1.40
38131;DHT22;23947;51.894;4.622;2023-04-06T08:44:08;8.50;1.40
38131;DHT22;23947;51.894;4.622;2023-04-06T08:46:34;8.60;1.40
38131;DHT22;23947;51.894;4.622;2023-04-06T08:49:01;8.60;1.40
38131;DHT22;23947;51.894;4.622;2023-04-06T08:51:29;8.60;1.40
38131;DHT22;23947;51.894;4.622;2023-04-06T08:53:57;8.70;1.40
38131;DHT22;23947;51.894;4.622;2023-04-06T08:56:23;8.70;1.40
38131;DHT22;23947;51.894;4.622;2023-04-06T08:58:50;8.70;1.40
38131;DHT22;23947;51.894;4.622;2023-04-06T09:01:20;8.70;1.40
38131;DHT22;23947;51.894;4.622;2023-04-06T09:03:46;8.70;1.40
38131;DHT22;23947;51.894;4.622;2023-04-06T09:06:13;8.70;1.40
38131;DHT22;23947;51.894;4.622;2023-04-06T09:08:40;8.80;1.40
38131;DHT22;23947;51.894;4.622;2023-04-06T09:11:07;8.70;1.40
38131;DHT22;23947;51.894;4.622;2023-04-06T09:16:12;8.60;1.40
38131;DHT22;23947;51.894;4.622;2023-04-06T09:18:38;8.60;1.40
38131;DHT22;23947;51.894;4.622;2023-04-06T09:21:05;8.60;1.40
38131;DHT22;23947;51.894;4.622;2023-04-06T09:23:31;8.60;1.40
38131;DHT22;23947;51.894;4.622;2023-04-06T09:26:23;8.70;1.40
38131;DHT22;23947;51.894;4.622;2023-04-06T09:28:58;8.70;1.40
38131;DHT22;23947;51.894;4.622;2023-04-06T09:31:32;8.70;1.40
38131;DHT22;23947;51.894;4.622;2023-04-06T09:33:59;8.70;1.40
38131;DHT22;23947;51.894;4.622;2023-04-06T09:36:33;8.70;1.40
38131;DHT22;23947;51.894;4.622;2023-04-06T09:39:04;8.70;1.40
38131;DHT22;23947;51.894;4.622;2023-04-06T09:41:32;8.70;1.40
38131;DHT22;23947;51.894;4.622;2023-04-06T09:44:09;8.80;1.40
38131;DHT22;23947;51.894;4.622;2023-04-06T09:46:36;8.80;1.40
38131;DHT22;23947;51.894;4.622;2023-04-06T09:49:03;8.80;1.40
38131;DHT22;23947;51.894;4.622;2023-04-06T09:51:40;8.80;1.40
38131;DHT22;23947;51.894;4.622;2023-04-06T09:54:07;8.70;1.40
38131;DHT22;23947;51.894;4.622;2023-04-06T09:57:18;8.70;1.40
38131;DHT22;23947;51.894;4.622;2023-04-06T10:02:41;8.60;1.40
38131;DHT22;23947;51.894;4.622;2023-04-06T10:07:57;8.70;1.40
38131;DHT22;23947;51.894;4.622;2023-04-06T10:10:23;8.70;1.40
38131;DHT22;23947;51.894;4.622;2023-04-06T10:12:49;8.60;1.40
38131;DHT22;23947;51.894;4.622;2023-04-06T10:15:16;8.60;1.40
38131;DHT22;23947;51.894;4.622;2023-04-06T10:17:41;8.60;1.40
38131;DHT22;23947;51.894;4.622;2023-04-06T10:23:29;8.50;1.40
38131;DHT22;23947;51.894;4.622;2023-04-06T10:26:00;8.50;1.40
38131;DHT22;23947;51.894;4.622;2023-04-06T10:28:33;8.50;1.40
38131;DHT22;23947;51.894;4.622;2023-04-06T10:31:03;8.60;1.40
38131;DHT22;23947;51.894;4.622;2023-04-06T10:33:29;8.60;1.40
38131;DHT22;23947;51.894;4.622;2023-04-06T10:35:55;8.60;1.40
38131;DHT22;23947;51.894;4.622;2023-04-06T10:38:21;8.60;1.40
38131;DHT22;23947;51.894;4.622;2023-04-06T10:41:04;8.60;1.40
38131;DHT22;23947;51.894;4.622;2023-04-06T10:43:33;8.60;1.40
38131;DHT22;23947;51.894;4.622;2023-04-06T10:46:00;8.50;1.40
38131;DHT22;23947;51.894;4.622;2023-04-06T10:48:40;8.50;1.40
38131;DHT22;23947;51.894;4.622;2023-04-06T10:51:17;8.50;1.40
38131;DHT22;23947;51.894;4.622;2023-04-06T10:53:47;8.50;1.40
38131;DHT22;23947;51.894;4.622;2023-04-06T10:56:17;8.50;1.40
38131;DHT22;23947;51.894;4.622;2023-04-06T10:58:47;8.60;1.40
38131;DHT22;23947;51.894;4.622;2023-04-06T11:01:17;8.50;1.40
38131;DHT22;23947;51.894;4.622;2023-04-06T11:03:54;8.50;1.40
38131;DHT22;23947;51.894;4.622;2023-04-06T11:06:28;8.50;1.40
38131;DHT22;23947;51.894;4.622;2023-04-06T11:08:55;8.50;1.40
38131;DHT22;23947;51.894;4.622;2023-04-06T11:11:23;8.50;1.40
38131;DHT22;23947;51.894;4.622;2023-04-06T11:13:54;8.50;1.40
38131;DHT22;23947;51.894;4.622;2023-04-06T11:16:31;8.40;1.40
38131;DHT22;23947;51.894;4.622;2023-04-06T11:18:58;8.40;1.40
38131;DHT22;23947;51.894;4.622;2023-04-06T11:26:55;8.50;1.40
38131;DHT22;23947;51.894;4.622;2023-04-06T11:29:23;8.50;1.40
38131;DHT22;23947;51.894;4.622;2023-04-06T11:31:53;8.50;1.40
38131;DHT22;23947;51.894;4.622;2023-04-06T11:34:20;8.50;1.40
38131;DHT22;23947;51.894;4.622;2023-04-06T11:36:48;8.50;1.40
38131;DHT22;23947;51.894;4.622;2023-04-06T11:39:19;8.60;1.40
38131;DHT22;23947;51.894;4.622;2023-04-06T11:41:52;8.50;1.40
38131;DHT22;23947;51.894;4.622;2023-04-06T11:44:44;8.50;1.40
38131;DHT22;23947;51.894;4.622;2023-04-06T11:47:14;8.50;1.40
38131;DHT22;23947;51.894;4.622;2023-04-06T11:49:42;8.60;1.40
38131;DHT22;23947;51.894;4.622;2023-04-06T11:52:23;8.50;1.40
38131;DHT22;23947;51.894;4.622;2023-04-06T11:54:50;8.50;1.40
38131;DHT22;23947;51.894;4.622;2023-04-06T11:57:17;8.50;1.40
38131;DHT22;23947;51.894;4.622;2023-04-06T11:59:44;8.60;1.40
38131;DHT22;23947;51.894;4.622;2023-04-06T12:02:10;8.50;1.40
38131;DHT22;23947;51.894;4.622;2023-04-06T12:04:36;8.50;1.40
38131;DHT22;23947;51.894;4.622;2023-04-06T12:07:02;8.60;1.40
38131;DHT22;23947;51.894;4.622;2023-04-06T12:09:29;8.50;1.40
38131;DHT22;23947;51.894;4.622;2023-04-06T12:11:54;8.50;1.40
38131;DHT22;23947;51.894;4.622;2023-04-06T12:14:21;8.50;1.40
38131;DHT22;23947;51.894;4.622;2023-04-06T12:16:47;8.40;1.40
38131;DHT22;23947;51.894;4.622;2023-04-06T12:19:13;8.40;1.40
38131;DHT22;23947;51.894;4.622;2023-04-06T12:21:38;8.40;1.40
38131;DHT22;23947;51.894;4.622;2023-04-06T12:24:04;8.40;1.40
38131;DHT22;23947;51.894;4.622;2023-04-06T12:26:31;8.50;1.40
38131;DHT22;23947;51.894;4.622;2023-04-06T12:28:58;8.50;1.40
38131;DHT22;23947;51.894;4.622;2023-04-06T12:31:30;8.40;1.40
38131;DHT22;23947;51.894;4.622;2023-04-06T12:33:56;8.50;1.40
38131;DHT22;23947;51.894;4.622;2023-04-06T12:36:21;8.50;1.40
38131;DHT22;23947;51.894;4.622;2023-04-06T12:38:48;8.50;1.40
38131;DHT22;23947;51.894;4.622;2023-04-06T12:41:14;8.50;1.40
38131;DHT22;23947;51.894;4.622;2023-04-06T12:43:40;8.50;1.40
38131;DHT22;23947;51.894;4.622;2023-04-06T12:46:06;8.50;1.40
38131;DHT22;23947;51.894;4.622;2023-04-06T12:48:32;8.60;1.40
38131;DHT22;23947;51.894;4.622;2023-04-06T12:51:03;8.50;1.40
38131;DHT22;23947;51.894;4.622;2023-04-06T12:53:29;8.60;1.40
38131;DHT22;23947;51.894;4.622;2023-04-06T12:55:55;8.60;1.40
38131;DHT22;23947;51.894;4.622;2023-04-06T12:58:22;8.60;1.40
38131;DHT22;23947;51.894;4.622;2023-04-06T13:00:49;8.60;1.40
38131;DHT22;23947;51.894;4.622;2023-04-06T13:03:16;8.60;1.40
38131;DHT22;23947;51.894;4.622;2023-04-06T13:05:45;8.60;1.40
38131;DHT22;23947;51.894;4.622;2023-04-06T13:08:11;8.60;1.40
38131;DHT22;23947;51.894;4.622;2023-04-06T13:10:37;8.60;1.40
38131;DHT22;23947;51.894;4.622;2023-04-06T13:13:03;8.60;1.40
38131;DHT22;23947;51.894;4.622;2023-04-06T13:15:29;8.70;1.40
38131;DHT22;23947;51.894;4.622;2023-04-06T13:17:55;8.70;1.40
38131;DHT22;23947;51.894;4.622;2023-04-06T13:20:20;8.60;1.40
38131;DHT22;23947;51.894;4.622;2023-04-06T13:22:46;8.50;1.40
38131;DHT22;23947;51.894;4.622;2023-04-06T13:25:12;8.60;1.40
38131;DHT22;23947;51.894;4.622;2023-04-06T13:27:37;8.50;1.40
38131;DHT22;23947;51.894;4.622;2023-04-06T13:30:03;8.50;1.40
38131;DHT22;23947;51.894;4.622;2023-04-06T13:32:30;8.50;1.40
38131;DHT22;23947;51.894;4.622;2023-04-06T13:34:56;8.60;1.40
38131;DHT22;23947;51.894;4.622;2023-04-06T13:37:22;8.60;1.40
38131;DHT22;23947;51.894;4.622;2023-04-06T13:39:48;8.50;1.40
38131;DHT22;23947;51.894;4.622;2023-04-06T13:42:14;8.50;1.40
38131;DHT22;23947;51.894;4.622;2023-04-06T13:44:39;8.50;1.40
38131;DHT22;23947;51.894;4.622;2023-04-06T13:47:05;8.50;1.40
38131;DHT22;23947;51.894;4.622;2023-04-06T13:49:31;8.50;1.40
38131;DHT22;23947;51.894;4.622;2023-04-06T13:51:57;8.50;1.40
38131;DHT22;23947;51.894;4.622;2023-04-06T13:54:23;8.50;1.40
38131;DHT22;23947;51.894;4.622;2023-04-06T13:56:49;8.50;1.40
38131;DHT22;23947;51.894;4.622;2023-04-06T13:59:14;8.50;1.40
38131;DHT22;23947;51.894;4.622;2023-04-06T14:01:40;8.50;1.40
38131;DHT22;23947;51.894;4.622;2023-04-06T14:04:06;8.50;1.40
38131;DHT22;23947;51.894;4.622;2023-04-06T14:06:32;8.50;1.40
38131;DHT22;23947;51.894;4.622;2023-04-06T14:08:58;8.50;1.40
38131;DHT22;23947;51.894;4.622;2023-04-06T14:11:23;8.50;1.40
38131;DHT22;23947;51.894;4.622;2023-04-06T14:13:49;8.60;1.40
38131;DHT22;23947;51.894;4.622;2023-04-06T14:16:15;8.50;1.40
38131;DHT22;23947;51.894;4.622;2023-04-06T14:18:41;8.50;1.40
38131;DHT22;23947;51.894;4.622;2023-04-06T14:21:07;8.50;1.40
38131;DHT22;23947;51.894;4.622;2023-04-06T14:23:33;8.50;1.40
38131;DHT22;23947;51.894;4.622;2023-04-06T14:26:07;8.50;1.40
38131;DHT22;23947;51.894;4.622;2023-04-06T14:28:34;8.60;1.40
38131;DHT22;23947;51.894;4.622;2023-04-06T14:31:00;8.60;1.40
38131;DHT22;23947;51.894;4.622;2023-04-06T14:33:28;8.60;1.40
38131;DHT22;23947;51.894;4.622;2023-04-06T14:35:55;8.60;1.40
38131;DHT22;23947;51.894;4.622;2023-04-06T14:38:21;8.60;1.40
38131;DHT22;23947;51.894;4.622;2023-04-06T14:40:47;8.60;1.40
38131;DHT22;23947;51.894;4.622;2023-04-06T14:43:13;8.60;1.40
38131;DHT22;23947;51.894;4.622;2023-04-06T14:45:39;8.70;1.40
38131;DHT22;23947;51.894;4.622;2023-04-06T14:48:05;8.60;1.40
38131;DHT22;23947;51.894;4.622;2023-04-06T14:50:38;8.60;1.40
38131;DHT22;23947;51.894;4.622;2023-04-06T14:53:04;8.70;1.40
38131;DHT22;23947;51.894;4.622;2023-04-06T14:55:30;8.70;1.40
38131;DHT22;23947;51.894;4.622;2023-04-06T14:57:56;8.70;1.40
38131;DHT22;23947;51.894;4.622;2023-04-06T15:00:22;8.60;1.40
38131;DHT22;23947;51.894;4.622;2023-04-06T15:02:47;8.70;1.40
38131;DHT22;23947;51.894;4.622;2023-04-06T15:05:13;8.70;1.40
38131;DHT22;23947;51.894;4.622;2023-04-06T15:07:39;8.70;1.40
38131;DHT22;23947;51.894;4.622;2023-04-06T15:10:05;8.70;1.40
38131;DHT22;23947;51.894;4.622;2023-04-06T15:12:31;8.70;1.40
38131;DHT22;23947;51.894;4.622;2023-04-06T15:14:58;8.80;1.40
38131;DHT22;23947;51.894;4.622;2023-04-06T15:17:23;8.70;1.40
38131;DHT22;23947;51.894;4.622;2023-04-06T15:19:51;8.70;1.40
38131;DHT22;23947;51.894;4.622;2023-04-06T15:22:18;8.80;1.40
38131;DHT22;23947;51.894;4.622;2023-04-06T15:24:44;8.80;1.40
38131;DHT22;23947;51.894;4.622;2023-04-06T15:27:09;8.80;1.40
38131;DHT22;23947;51.894;4.622;2023-04-06T15:29:35;8.80;1.40
38131;DHT22;23947;51.894;4.622;2023-04-06T15:32:01;8.80;1.40
38131;DHT22;23947;51.894;4.622;2023-04-06T15:34:27;8.70;1.40
38131;DHT22;23947;51.894;4.622;2023-04-06T15:36:55;8.70;1.40
38131;DHT22;23947;51.894;4.622;2023-04-06T15:39:24;8.70;1.40
38131;DHT22;23947;51.894;4.622;2023-04-06T15:41:49;8.80;1.40
38131;DHT22;23947;51.894;4.622;2023-04-06T15:44:15;8.80;1.40
38131;DHT22;23947;51.894;4.622;2023-04-06T15:46:41;8.90;1.40
38131;DHT22;23947;51.894;4.622;2023-04-06T15:49:07;8.90;1.40
38131;DHT22;23947;51.894;4.622;2023-04-06T15:51:32;8.90;1.40
38131;DHT22;23947;51.894;4.622;2023-04-06T15:53:58;8.90;1.40
38131;DHT22;23947;51.894;4.622;2023-04-06T15:56:23;8.90;1.40
38131;DHT22;23947;51.894;4.622;2023-04-06T15:58:49;8.90;1.40
38131;DHT22;23947;51.894;4.622;2023-04-06T16:01:17;8.90;1.40
38131;DHT22;23947;51.894;4.622;2023-04-06T16:03:43;8.90;1.40
38131;DHT22;23947;51.894;4.622;2023-04-06T16:06:10;8.90;1.40
38131;DHT22;23947;51.894;4.622;2023-04-06T16:08:37;8.90;1.40
38131;DHT22;23947;51.894;4.622;2023-04-06T16:11:02;8.90;1.40
38131;DHT22;23947;51.894;4.622;2023-04-06T16:13:28;8.80;1.40
38131;DHT22;23947;51.894;4.622;2023-04-06T16:15:54;8.80;1.40